createdAt,value
2022-10-05T00:00:07.390Z,5.70
2022-10-05T00:02:34.857Z,5.20
2022-10-05T00:05:02.277Z,5.05
2022-10-05T00:07:30.628Z,8.23
2022-10-05T00:10:00.751Z,7.97
2022-10-05T00:12:30.065Z,6.80
2022-10-05T00:15:00.428Z,6.00
2022-10-05T00:17:29.727Z,5.15
2022-10-05T00:19:57.171Z,6.60
2022-10-05T00:22:33.936Z,8.27
2022-10-05T00:25:04.084Z,6.70
2022-10-05T00:27:37.583Z,6.75
2022-10-05T00:30:18.356Z,7.38
2022-10-05T00:32:46.222Z,6.40
2022-10-05T00:35:14.713Z,6.75
2022-10-05T00:37:42.754Z,6.15
2022-10-05T00:40:26.933Z,5.55
2022-10-05T00:43:13.188Z,6.43
2022-10-05T00:45:52.386Z,5.60
2022-10-05T00:48:38.826Z,6.68
2022-10-05T00:51:12.511Z,5.50
2022-10-05T00:53:40.034Z,6.15
2022-10-05T00:56:07.559Z,5.95
2022-10-05T00:58:51.575Z,6.13
2022-10-05T01:01:26.609Z,6.18
2022-10-05T01:03:57.085Z,5.85
2022-10-05T01:06:43.448Z,5.65
2022-10-05T01:09:31.461Z,6.25
2022-10-05T01:12:02.008Z,6.28
2022-10-05T01:14:40.600Z,6.00
2022-10-05T01:17:17.082Z,6.20
2022-10-05T01:20:03.076Z,5.85
2022-10-05T01:22:40.895Z,6.13
2022-10-05T01:25:11.313Z,6.10
2022-10-05T01:27:38.762Z,6.57
2022-10-05T01:30:14.448Z,6.47
2022-10-05T01:32:41.958Z,7.22
2022-10-05T01:35:15.373Z,6.18
2022-10-05T01:38:03.050Z,7.63
2022-10-05T01:40:39.666Z,7.30
2022-10-05T01:43:26.031Z,7.20
2022-10-05T01:45:53.461Z,6.70
2022-10-05T01:48:24.867Z,7.13
2022-10-05T01:50:58.759Z,6.78
2022-10-05T01:53:44.887Z,6.97
2022-10-05T01:56:19.483Z,6.78
2022-10-05T01:58:59.294Z,6.75
2022-10-05T02:01:29.919Z,6.57
2022-10-05T02:04:09.683Z,7.15
2022-10-05T02:06:42.581Z,6.93
2022-10-05T02:09:14.558Z,6.20
2022-10-05T02:11:44.639Z,6.80
2022-10-05T02:14:13.302Z,6.30
2022-10-05T02:16:43.455Z,6.30
2022-10-05T02:19:14.719Z,6.65
2022-10-05T02:21:45.611Z,6.57
2022-10-05T02:24:21.653Z,6.45
2022-10-05T02:26:51.031Z,7.18
2022-10-05T02:29:20.939Z,6.80
2022-10-05T02:31:51.419Z,6.68
2022-10-05T02:34:22.715Z,6.68
2022-10-05T02:37:12.263Z,7.38
2022-10-05T02:39:39.917Z,6.95
2022-10-05T02:42:24.642Z,8.07
2022-10-05T02:45:01.572Z,7.22
2022-10-05T02:47:33.984Z,6.82
2022-10-05T02:50:07.983Z,7.03
2022-10-05T02:52:54.434Z,7.20
2022-10-05T02:55:22.193Z,7.28
2022-10-05T02:57:52.741Z,6.82
2022-10-05T03:00:23.711Z,7.22
2022-10-05T03:02:51.846Z,6.70
2022-10-05T03:05:21.572Z,7.55
2022-10-05T03:07:54.563Z,7.25
2022-10-05T03:10:28.219Z,6.68
2022-10-05T03:12:58.974Z,7.18
2022-10-05T03:15:42.816Z,7.28
2022-10-05T03:18:13.629Z,7.57
2022-10-05T03:20:58.537Z,11.30
2022-10-05T03:23:26.029Z,17.27
2022-10-05T03:25:53.675Z,23.92
2022-10-05T03:28:30.670Z,16.52
2022-10-05T03:31:01.919Z,14.25
2022-10-05T03:33:39.082Z,7.70
2022-10-05T03:36:13.433Z,19.88
2022-10-05T03:38:44.694Z,25.38
2022-10-05T03:41:23.450Z,14.32
2022-10-05T03:44:08.034Z,18.60
2022-10-05T03:46:48.108Z,6.20
2022-10-05T03:49:45.171Z,20.63
2022-10-05T03:52:15.603Z,13.63
2022-10-05T03:54:45.808Z,9.43
2022-10-05T03:57:22.489Z,9.52
2022-10-05T04:00:05.715Z,16.15
2022-10-05T04:02:46.612Z,9.55
2022-10-05T04:05:22.063Z,8.43
2022-10-05T04:10:20.291Z,15.35
2022-10-05T04:13:02.223Z,17.60
2022-10-05T04:15:38.250Z,7.40
2022-10-05T04:18:08.111Z,6.60
2022-10-05T04:20:53.555Z,11.98
2022-10-05T04:23:30.423Z,7.03
2022-10-05T04:26:03.366Z,8.30
2022-10-05T04:28:40.220Z,7.20
2022-10-05T04:31:12.116Z,7.82
2022-10-05T04:33:39.631Z,7.65
2022-10-05T04:36:16.263Z,8.18
2022-10-05T04:38:59.261Z,8.55
2022-10-05T04:41:26.929Z,10.85
2022-10-05T04:44:13.556Z,10.52
2022-10-05T04:47:01.762Z,8.50
2022-10-05T04:49:33.287Z,8.30
2022-10-05T04:52:00.860Z,7.72
2022-10-05T04:54:31.467Z,8.10
2022-10-05T04:56:59.035Z,9.00
2022-10-05T04:59:37.587Z,11.60
2022-10-05T05:02:08.786Z,10.10
2022-10-05T05:04:40.201Z,10.30
2022-10-05T05:07:11.853Z,10.10
2022-10-05T05:09:42.528Z,12.93
2022-10-05T05:12:19.905Z,16.30
2022-10-05T05:14:51.925Z,15.85
2022-10-05T05:17:38.100Z,24.45
2022-10-05T05:20:06.332Z,37.05
2022-10-05T05:22:43.123Z,26.48
2022-10-05T05:25:23.144Z,17.23
2022-10-05T05:27:56.425Z,15.80
2022-10-05T05:30:52.736Z,13.07
2022-10-05T05:33:23.341Z,17.33
2022-10-05T05:36:07.591Z,9.05
2022-10-05T05:38:59.119Z,10.75
2022-10-05T05:41:35.562Z,9.38
2022-10-05T05:44:06.953Z,13.93
2022-10-05T05:47:01.763Z,7.43
2022-10-05T05:49:44.717Z,14.98
2022-10-05T05:52:25.351Z,9.70
2022-10-05T05:54:59.175Z,20.27
2022-10-05T05:57:37.169Z,14.73
2022-10-05T06:00:06.971Z,16.50
2022-10-05T06:03:00.119Z,14.23
2022-10-05T06:05:31.738Z,12.07
2022-10-05T06:08:20.580Z,12.25
2022-10-05T06:10:59.262Z,9.82
2022-10-05T06:13:33.635Z,10.18
2022-10-05T06:16:19.909Z,11.40
2022-10-05T06:18:50.747Z,7.68
2022-10-05T06:21:27.751Z,6.90
2022-10-05T06:24:10.688Z,6.13
2022-10-05T06:26:59.250Z,5.97
2022-10-05T06:29:29.650Z,7.45
2022-10-05T06:32:06.990Z,10.10
2022-10-05T06:34:54.465Z,5.80
2022-10-05T06:37:43.084Z,6.60
2022-10-05T06:40:29.176Z,6.55
2022-10-05T06:43:15.304Z,8.30
2022-10-05T06:46:03.014Z,12.55
2022-10-05T06:48:58.087Z,5.90
2022-10-05T06:51:48.504Z,6.05
2022-10-05T06:54:43.424Z,5.55
2022-10-05T06:57:24.768Z,7.18
2022-10-05T06:59:55.325Z,9.98
2022-10-05T07:02:39.992Z,10.32
2022-10-05T07:05:07.531Z,8.45
2022-10-05T07:07:38.058Z,4.70
2022-10-05T07:10:05.517Z,12.50
2022-10-05T07:13:05.338Z,7.10
2022-10-05T07:15:41.366Z,8.57
2022-10-05T07:18:19.399Z,7.03
2022-10-05T07:21:01.047Z,5.80
2022-10-05T07:23:43.579Z,9.00
2022-10-05T07:26:15.505Z,7.00
2022-10-05T07:28:55.975Z,9.55
2022-10-05T07:31:23.697Z,20.52
2022-10-05T07:33:59.494Z,17.95
2022-10-05T07:36:53.650Z,7.85
2022-10-05T07:39:42.140Z,6.57
2022-10-05T07:42:31.245Z,7.05
2022-10-05T07:45:09.176Z,7.53
2022-10-05T07:47:40.192Z,6.13
2022-10-05T07:50:07.665Z,8.18
2022-10-05T07:52:40.123Z,6.82
2022-10-05T07:55:19.742Z,5.90
2022-10-05T07:58:03.297Z,6.53
2022-10-05T08:00:44.136Z,6.13
2022-10-05T08:03:15.278Z,5.50
2022-10-05T08:05:43.264Z,6.57
2022-10-05T08:08:22.568Z,5.35
2022-10-05T08:10:56.345Z,5.45
2022-10-05T08:13:40.166Z,5.03
2022-10-05T08:16:14.776Z,9.00
2022-10-05T08:19:03.963Z,5.47
2022-10-05T08:22:07.072Z,6.63
2022-10-05T08:24:40.132Z,4.68
2022-10-05T08:27:12.680Z,4.80
2022-10-05T08:29:46.006Z,4.93
2022-10-05T08:32:17.035Z,5.38
2022-10-05T08:34:54.199Z,6.30
2022-10-05T08:37:24.992Z,4.25
2022-10-05T08:40:18.070Z,4.75
2022-10-05T08:43:04.239Z,6.00
2022-10-05T08:45:40.073Z,4.40
2022-10-05T08:48:17.494Z,5.28
2022-10-05T08:50:56.976Z,4.20
2022-10-05T08:53:43.182Z,6.15
2022-10-05T08:56:27.808Z,4.80
2022-10-05T08:59:05.255Z,6.97
2022-10-05T09:01:42.534Z,5.13
2022-10-05T09:04:36.541Z,14.05
2022-10-05T09:07:16.658Z,5.32
2022-10-05T09:10:01.541Z,3.97
2022-10-05T09:12:50.416Z,2.90
2022-10-05T09:15:25.868Z,3.20
2022-10-05T09:18:12.792Z,3.17
2022-10-05T09:20:58.429Z,4.10
2022-10-05T09:23:28.925Z,2.67
2022-10-05T09:25:58.854Z,2.30
2022-10-05T09:28:35.392Z,2.60
2022-10-05T09:31:11.578Z,2.90
2022-10-05T09:33:56.421Z,3.05
2022-10-05T09:36:31.907Z,2.95
2022-10-05T09:39:18.048Z,2.88
2022-10-05T09:41:51.330Z,2.90
2022-10-05T09:44:34.514Z,2.80
2022-10-05T09:47:11.046Z,3.25
2022-10-05T09:49:57.490Z,2.90
2022-10-05T09:52:27.873Z,2.90
2022-10-05T09:55:01.423Z,2.72
2022-10-05T09:57:28.925Z,2.60
2022-10-05T10:00:15.327Z,2.50
2022-10-05T10:02:53.102Z,2.08
2022-10-05T10:05:31.400Z,2.70
2022-10-05T10:07:58.776Z,2.53
2022-10-05T10:10:45.960Z,2.75
2022-10-05T10:13:22.286Z,3.00
2022-10-05T10:16:04.811Z,3.97
2022-10-05T10:18:32.323Z,3.10
2022-10-05T10:21:18.487Z,2.80
2022-10-05T10:24:00.224Z,2.45
2022-10-05T10:26:51.573Z,2.47
2022-10-05T10:29:36.051Z,1.70
2022-10-05T10:32:11.407Z,2.03
2022-10-05T10:34:45.304Z,2.40
2022-10-05T10:37:12.798Z,2.20
2022-10-05T10:39:58.603Z,2.03
2022-10-05T10:42:29.166Z,2.40
2022-10-05T10:45:00.718Z,2.40
2022-10-05T10:47:28.238Z,2.10
2022-10-05T10:50:05.390Z,2.10
2022-10-05T10:52:41.734Z,1.80
2022-10-05T10:55:16.716Z,1.98
2022-10-05T10:58:16.895Z,2.03
2022-10-05T11:01:02.837Z,1.67
2022-10-05T11:03:30.256Z,2.58
2022-10-05T11:06:09.106Z,2.60
2022-10-05T11:08:55.069Z,2.30
2022-10-05T11:11:41.171Z,3.03
2022-10-05T11:14:27.108Z,2.50
2022-10-05T11:16:54.605Z,1.90
2022-10-05T11:19:59.602Z,2.03
2022-10-05T11:22:47.199Z,1.92
2022-10-05T11:25:28.038Z,1.80
2022-10-05T11:27:55.625Z,4.38
2022-10-05T11:30:46.219Z,2.40
2022-10-05T11:33:19.332Z,1.90
2022-10-05T11:35:52.716Z,2.00
2022-10-05T11:38:39.011Z,1.77
2022-10-05T11:41:25.206Z,1.60
2022-10-05T11:44:06.138Z,2.35
2022-10-05T11:46:41.516Z,1.50
2022-10-05T11:49:18.197Z,2.20
2022-10-05T11:52:06.979Z,2.92
2022-10-05T11:55:05.785Z,7.88
2022-10-05T11:57:38.896Z,2.90
2022-10-05T12:00:12.905Z,1.80
2022-10-05T12:02:53.320Z,3.70
2022-10-05T12:05:28.163Z,2.97
2022-10-05T12:08:18.657Z,2.40
2022-10-05T12:11:09.405Z,2.00
2022-10-05T12:13:52.283Z,1.80
2022-10-05T12:16:19.732Z,3.30
2022-10-05T12:18:47.342Z,2.70
2022-10-05T12:21:36.846Z,2.78
2022-10-05T12:24:26.784Z,4.10
2022-10-05T12:27:03.643Z,3.00
2022-10-05T12:29:35.186Z,2.60
2022-10-05T12:32:05.736Z,3.22
2022-10-05T12:34:42.330Z,4.68
2022-10-05T12:37:28.640Z,3.45
2022-10-05T12:40:03.773Z,2.88
2022-10-05T12:42:40.874Z,2.53
2022-10-05T12:45:14.938Z,2.25
2022-10-05T12:47:42.530Z,2.10
2022-10-05T12:50:28.640Z,2.40
2022-10-05T12:52:56.135Z,2.20
2022-10-05T12:55:26.117Z,2.05
2022-10-05T12:58:02.265Z,4.28
2022-10-05T13:00:32.375Z,2.08
2022-10-05T13:03:02.647Z,3.38
2022-10-05T13:05:30.087Z,3.90
2022-10-05T13:08:18.926Z,2.20
2022-10-05T13:10:51.292Z,2.00
2022-10-05T13:13:18.754Z,1.77
2022-10-05T13:15:56.604Z,2.83
2022-10-05T13:18:30.348Z,1.65
2022-10-05T13:21:09.777Z,1.85
2022-10-05T13:23:57.699Z,1.90
2022-10-05T13:26:29.933Z,1.77
2022-10-05T13:28:57.376Z,2.00
2022-10-05T13:31:27.566Z,2.30
2022-10-05T13:33:58.271Z,2.33
2022-10-05T13:36:44.296Z,4.55
2022-10-05T13:39:30.398Z,2.40
2022-10-05T13:42:03.602Z,4.30
2022-10-05T13:44:39.693Z,2.60
2022-10-05T13:47:12.480Z,2.30
2022-10-05T13:49:48.142Z,3.05
2022-10-05T13:52:19.425Z,3.83
2022-10-05T13:54:51.876Z,2.65
2022-10-05T13:57:25.460Z,2.05
2022-10-05T13:59:54.860Z,2.13
2022-10-05T14:02:29.680Z,1.83
2022-10-05T14:05:01.354Z,4.00
2022-10-05T14:07:31.548Z,3.03
2022-10-05T14:09:59.697Z,1.77
2022-10-05T14:12:28.321Z,1.88
2022-10-05T14:14:57.157Z,3.10
2022-10-05T14:17:30.608Z,2.42
2022-10-05T14:20:01.327Z,2.40
2022-10-05T14:22:29.455Z,1.63
2022-10-05T14:25:03.853Z,3.90
2022-10-05T14:27:36.463Z,2.70
2022-10-05T14:30:24.368Z,6.20
2022-10-05T14:32:56.306Z,3.20
2022-10-05T14:35:25.884Z,5.68
2022-10-05T14:37:53.283Z,2.90
2022-10-05T14:40:29.645Z,2.97
2022-10-05T14:42:57.522Z,3.53
2022-10-05T14:45:26.549Z,2.60
2022-10-05T14:47:54.036Z,2.90
2022-10-05T14:50:26.277Z,10.45
2022-10-05T14:53:11.970Z,5.65
2022-10-05T14:55:46.723Z,2.88
2022-10-05T14:58:26.174Z,3.70
2022-10-05T15:01:14.775Z,2.90
2022-10-05T15:03:47.778Z,4.07
2022-10-05T15:06:19.167Z,4.20
2022-10-05T15:08:48.143Z,3.65
2022-10-05T15:11:18.572Z,3.90
2022-10-05T15:13:48.652Z,2.70
2022-10-05T15:16:20.950Z,3.53
2022-10-05T15:19:00.828Z,3.28
2022-10-05T15:21:37.382Z,13.27
2022-10-05T15:24:09.340Z,6.90
2022-10-05T15:26:50.640Z,5.60
2022-10-05T15:29:26.132Z,3.42
2022-10-05T15:31:53.679Z,3.10
2022-10-05T15:34:42.756Z,12.45
2022-10-05T15:37:19.471Z,14.18
2022-10-05T15:39:50.204Z,18.67
2022-10-05T15:42:18.936Z,55.45
2022-10-05T15:44:52.456Z,46.53
2022-10-05T15:47:23.891Z,7.78
2022-10-05T15:50:14.605Z,12.30
2022-10-05T15:52:46.085Z,30.13
2022-10-05T15:55:19.656Z,49.80
2022-10-05T15:57:56.331Z,57.53
2022-10-05T16:00:25.805Z,22.02
2022-10-05T16:03:02.157Z,23.50
2022-10-05T16:05:54.250Z,13.50
2022-10-05T16:08:53.948Z,42.70
2022-10-05T16:11:21.333Z,8.02
2022-10-05T16:14:01.147Z,12.70
2022-10-05T16:16:42.765Z,26.83
2022-10-05T16:19:14.779Z,17.77
2022-10-05T16:21:44.223Z,15.43
2022-10-05T16:24:15.803Z,19.42
2022-10-05T16:26:46.172Z,16.83
2022-10-05T16:29:24.012Z,17.10
2022-10-05T16:31:58.091Z,21.23
2022-10-05T16:34:54.247Z,10.35
2022-10-05T16:37:41.219Z,43.03
2022-10-05T16:40:09.120Z,40.25
2022-10-05T16:42:39.564Z,19.95
2022-10-05T16:45:14.956Z,27.55
2022-10-05T16:48:01.574Z,18.55
2022-10-05T16:50:47.620Z,45.25
2022-10-05T16:53:18.175Z,44.38
2022-10-05T16:55:48.457Z,58.60
2022-10-05T16:58:28.042Z,48.40
2022-10-05T17:01:04.730Z,52.17
2022-10-05T17:03:51.839Z,38.53
2022-10-05T17:06:19.296Z,53.90
2022-10-05T17:08:46.732Z,39.00
2022-10-05T17:11:17.389Z,58.47
2022-10-05T17:13:56.248Z,57.83
2022-10-05T17:16:47.013Z,53.83
2022-10-05T17:19:17.994Z,44.30
2022-10-05T17:21:51.886Z,32.40
2022-10-05T17:24:19.328Z,40.00
2022-10-05T17:26:46.763Z,49.88
2022-10-05T17:29:26.912Z,55.08
2022-10-05T17:32:33.532Z,42.28
2022-10-05T17:35:01.129Z,27.40
2022-10-05T17:37:29.551Z,33.05
2022-10-05T17:39:59.706Z,35.97
2022-10-05T17:42:30.033Z,49.70
2022-10-05T17:45:02.626Z,47.60
2022-10-05T17:48:03.325Z,65.70
2022-10-05T17:51:02.614Z,72.45
2022-10-05T17:54:03.839Z,25.45
2022-10-05T17:56:55.581Z,31.17
2022-10-05T17:59:39.879Z,67.22
2022-10-05T18:02:22.089Z,59.35
2022-10-05T18:05:12.766Z,55.67
2022-10-05T18:07:48.701Z,45.20
2022-10-05T18:10:28.852Z,48.03
2022-10-05T18:12:59.605Z,54.55
2022-10-05T18:15:27.051Z,62.05
2022-10-05T18:18:32.130Z,43.33
2022-10-05T18:21:14.831Z,35.92
2022-10-05T18:23:47.432Z,46.15
2022-10-05T18:26:40.238Z,42.85
2022-10-05T18:29:13.970Z,41.00
2022-10-05T18:31:45.351Z,43.47
2022-10-05T18:34:13.275Z,40.67
2022-10-05T18:36:46.942Z,41.25
2022-10-05T18:39:33.234Z,46.67
2022-10-05T18:42:00.628Z,40.08
2022-10-05T18:44:39.865Z,38.03
2022-10-05T18:47:13.381Z,35.17
2022-10-05T18:49:40.755Z,54.13
2022-10-05T18:52:12.324Z,29.02
2022-10-05T18:54:54.182Z,31.27
2022-10-05T18:57:36.768Z,35.15
2022-10-05T19:00:16.463Z,34.08
2022-10-05T19:03:06.330Z,31.02
2022-10-05T19:05:47.577Z,37.25
2022-10-05T19:08:29.699Z,29.40
2022-10-05T19:11:18.024Z,31.27
2022-10-05T19:13:46.769Z,30.17
2022-10-05T19:16:17.036Z,36.08
2022-10-05T19:18:47.700Z,19.85
2022-10-05T19:21:33.124Z,20.33
2022-10-05T19:24:18.987Z,21.60
2022-10-05T19:26:58.759Z,41.17
2022-10-05T19:29:30.359Z,31.27
2022-10-05T19:32:03.069Z,24.67
2022-10-05T19:34:39.534Z,33.95
2022-10-05T19:37:12.035Z,31.75
2022-10-05T19:39:54.140Z,41.90
2022-10-05T19:42:46.174Z,34.30
2022-10-05T19:45:27.359Z,34.90
2022-10-05T19:48:07.578Z,22.25
2022-10-05T19:50:38.493Z,30.50
2022-10-05T19:53:10.327Z,26.50
2022-10-05T19:55:37.833Z,23.70
2022-10-05T19:58:17.376Z,24.60
2022-10-05T20:00:45.856Z,23.80
2022-10-05T20:03:17.476Z,22.95
2022-10-05T20:05:45.156Z,23.63
2022-10-05T20:08:17.491Z,26.27
2022-10-05T20:10:45.689Z,22.73
2022-10-05T20:13:22.996Z,21.35
2022-10-05T20:16:45.231Z,19.75
2022-10-05T20:19:43.588Z,19.75
2022-10-05T20:22:27.138Z,18.52
2022-10-05T20:24:56.172Z,19.08
2022-10-05T20:27:37.299Z,16.73
2022-10-05T20:30:05.587Z,17.02
2022-10-05T20:32:32.967Z,17.15
2022-10-05T20:35:00.500Z,16.05
2022-10-05T20:37:28.080Z,18.15
2022-10-05T20:39:55.611Z,14.75
2022-10-05T20:42:23.894Z,15.18
2022-10-05T20:44:56.463Z,28.08
2022-10-05T20:47:24.847Z,16.38
2022-10-05T20:49:54.523Z,19.90
2022-10-05T20:52:23.206Z,22.67
2022-10-05T20:54:53.927Z,24.73
2022-10-05T20:57:21.556Z,29.38
2022-10-05T20:59:48.912Z,45.22
2022-10-05T21:02:16.476Z,32.20
2022-10-05T21:04:47.542Z,21.77
2022-10-05T21:07:16.708Z,25.75
2022-10-05T21:09:46.541Z,19.92
2022-10-05T21:12:14.444Z,19.30
2022-10-05T21:14:41.844Z,25.02
2022-10-05T21:17:09.640Z,19.77
2022-10-05T21:19:40.549Z,17.95
2022-10-05T21:22:09.190Z,27.42
2022-10-05T21:24:37.539Z,24.92
2022-10-05T21:27:05.305Z,18.33
2022-10-05T21:29:34.228Z,16.40
2022-10-05T21:32:01.745Z,17.05
2022-10-05T21:34:29.274Z,15.70
2022-10-05T21:36:56.718Z,24.35
2022-10-05T21:39:24.783Z,23.70
2022-10-05T21:41:52.282Z,21.55
2022-10-05T21:44:19.798Z,17.13
2022-10-05T21:46:47.779Z,21.40
2022-10-05T21:49:17.549Z,14.15
2022-10-05T21:51:47.281Z,17.15
2022-10-05T21:54:16.125Z,30.15
2022-10-05T21:56:49.497Z,27.10
2022-10-05T21:59:18.792Z,19.73
2022-10-05T22:01:46.188Z,34.78
2022-10-05T22:04:15.091Z,44.55
2022-10-05T22:06:42.483Z,45.67
2022-10-05T22:09:10.040Z,42.60
2022-10-05T22:11:37.556Z,34.08
2022-10-05T22:14:04.983Z,28.65
2022-10-05T22:16:33.987Z,40.97
2022-10-05T22:19:11.362Z,19.10
2022-10-05T22:21:41.729Z,16.40
2022-10-05T22:24:11.692Z,14.88
2022-10-05T22:26:40.114Z,14.63
2022-10-05T22:29:07.662Z,16.08
2022-10-05T22:31:35.465Z,19.00
2022-10-05T22:34:03.027Z,16.98
2022-10-05T22:36:30.455Z,13.38
2022-10-05T22:38:58.450Z,17.23
2022-10-05T22:41:25.879Z,28.83
2022-10-05T22:43:53.297Z,14.00
2022-10-05T22:46:20.778Z,15.48
2022-10-05T22:48:48.238Z,12.27
2022-10-05T22:51:16.250Z,12.77
2022-10-05T22:53:43.672Z,15.55
2022-10-05T22:56:12.656Z,18.70
2022-10-05T22:58:40.961Z,21.25
2022-10-05T23:01:15.564Z,13.40
2022-10-05T23:03:43.557Z,12.38
2022-10-05T23:06:15.217Z,43.40
2022-10-05T23:08:43.217Z,13.88
2022-10-05T23:11:12.416Z,16.98
2022-10-05T23:13:40.555Z,13.70
2022-10-05T23:16:09.459Z,13.18
2022-10-05T23:18:37.249Z,14.40
2022-10-05T23:21:07.458Z,15.55
2022-10-05T23:23:38.447Z,13.73
2022-10-05T23:26:06.643Z,18.17
2022-10-05T23:28:34.664Z,12.68
2022-10-05T23:31:06.923Z,13.75
2022-10-05T23:33:34.694Z,12.80
2022-10-05T23:36:08.980Z,16.70
2022-10-05T23:38:36.667Z,14.17
2022-10-05T23:41:04.635Z,12.00
2022-10-05T23:43:33.361Z,15.50
2022-10-05T23:46:01.213Z,12.70
2022-10-05T23:48:30.629Z,12.60
2022-10-05T23:50:58.438Z,17.25
2022-10-05T23:53:26.296Z,20.20
2022-10-05T23:55:54.467Z,15.88
2022-10-05T23:58:22.718Z,11.85
